sensor_id;sensor_type;location;lat;lon;timestamp;P1;durP1;ratioP1;P2;durP2;ratioP2
19846;SDS011;10084;50.518;8.588;2023-02-28T05:31:54;0.30;;;0.20;;
19846;SDS011;10084;50.518;8.588;2023-02-28T05:34:20;0.17;;;0.17;;
19846;SDS011;10084;50.518;8.588;2023-02-28T05:36:46;0.20;;;0.20;;
19846;SDS011;10084;50.518;8.588;2023-02-28T05:39:12;0.17;;;0.17;;
19846;SDS011;10084;50.518;8.588;2023-02-28T05:41:38;0.27;;;0.20;;
19846;SDS011;10084;50.518;8.588;2023-02-28T05:44:08;0.30;;;0.30;;
19846;SDS011;10084;50.518;8.588;2023-02-28T05:46:35;0.70;;;0.20;;
19846;SDS011;10084;50.518;8.588;2023-02-28T05:49:01;1.80;;;0.20;;
19846;SDS011;10084;50.518;8.588;2023-02-28T05:51:27;0.40;;;0.30;;
19846;SDS011;10084;50.518;8.588;2023-02-28T05:53:53;0.53;;;0.30;;
19846;SDS011;10084;50.518;8.588;2023-02-28T05:56:19;0.33;;;0.20;;
19846;SDS011;10084;50.518;8.588;2023-02-28T05:58:44;0.30;;;0.30;;
19846;SDS011;10084;50.518;8.588;2023-02-28T06:01:21;0.20;;;0.20;;
19846;SDS011;10084;50.518;8.588;2023-02-28T06:04:07;0.43;;;0.30;;
19846;SDS011;10084;50.518;8.588;2023-02-28T06:06:34;0.30;;;0.20;;
19846;SDS011;10084;50.518;8.588;2023-02-28T06:09:02;0.40;;;0.27;;
19846;SDS011;10084;50.518;8.588;2023-02-28T06:11:29;0.53;;;0.23;;
19846;SDS011;10084;50.518;8.588;2023-02-28T06:13:58;0.20;;;0.20;;
19846;SDS011;10084;50.518;8.588;2023-02-28T06:16:26;0.30;;;0.30;;
19846;SDS011;10084;50.518;8.588;2023-02-28T06:18:53;0.30;;;0.20;;
19846;SDS011;10084;50.518;8.588;2023-02-28T06:21:21;0.30;;;0.20;;
19846;SDS011;10084;50.518;8.588;2023-02-28T06:23:47;0.30;;;0.30;;
19846;SDS011;10084;50.518;8.588;2023-02-28T06:26:13;0.63;;;0.27;;
19846;SDS011;10084;50.518;8.588;2023-02-28T06:28:39;0.23;;;0.23;;
19846;SDS011;10084;50.518;8.588;2023-02-28T06:31:06;0.23;;;0.23;;
19846;SDS011;10084;50.518;8.588;2023-02-28T06:33:33;0.20;;;0.20;;
19846;SDS011;10084;50.518;8.588;2023-02-28T06:35:59;0.30;;;0.30;;
19846;SDS011;10084;50.518;8.588;2023-02-28T06:38:25;0.20;;;0.20;;
19846;SDS011;10084;50.518;8.588;2023-02-28T06:40:54;0.33;;;0.33;;
19846;SDS011;10084;50.518;8.588;2023-02-28T06:43:21;0.20;;;0.20;;
19846;SDS011;10084;50.518;8.588;2023-02-28T06:45:48;0.50;;;0.27;;
19846;SDS011;10084;50.518;8.588;2023-02-28T06:48:14;0.20;;;0.20;;
19846;SDS011;10084;50.518;8.588;2023-02-28T06:50:39;0.20;;;0.20;;
19846;SDS011;10084;50.518;8.588;2023-02-28T06:53:05;0.40;;;0.30;;
19846;SDS011;10084;50.518;8.588;2023-02-28T06:55:31;0.20;;;0.20;;
19846;SDS011;10084;50.518;8.588;2023-02-28T06:57:57;1.10;;;0.30;;
19846;SDS011;10084;50.518;8.588;2023-02-28T07:00:23;0.53;;;0.30;;
19846;SDS011;10084;50.518;8.588;2023-02-28T07:02:50;6.67;;;5.63;;
19846;SDS011;10084;50.518;8.588;2023-02-28T07:05:16;7.57;;;6.80;;
19846;SDS011;10084;50.518;8.588;2023-02-28T07:07:41;8.60;;;3.33;;
19846;SDS011;10084;50.518;8.588;2023-02-28T07:10:12;3.67;;;1.90;;
19846;SDS011;10084;50.518;8.588;2023-02-28T07:12:41;1.97;;;1.87;;
19846;SDS011;10084;50.518;8.588;2023-02-28T07:15:08;2.03;;;1.57;;
19846;SDS011;10084;50.518;8.588;2023-02-28T07:17:34;2.23;;;1.53;;
19846;SDS011;10084;50.518;8.588;2023-02-28T07:20:00;1.83;;;1.03;;
19846;SDS011;10084;50.518;8.588;2023-02-28T07:22:26;1.83;;;1.07;;
19846;SDS011;10084;50.518;8.588;2023-02-28T07:24:53;1.30;;;0.73;;
19846;SDS011;10084;50.518;8.588;2023-02-28T07:27:19;0.87;;;0.80;;
19846;SDS011;10084;50.518;8.588;2023-02-28T07:29:51;1.43;;;0.70;;
19846;SDS011;10084;50.518;8.588;2023-02-28T07:32:17;0.70;;;0.70;;
19846;SDS011;10084;50.518;8.588;2023-02-28T07:34:44;0.63;;;0.60;;
19846;SDS011;10084;50.518;8.588;2023-02-28T07:37:10;2.17;;;0.50;;
19846;SDS011;10084;50.518;8.588;2023-02-28T07:39:36;0.63;;;0.50;;
19846;SDS011;10084;50.518;8.588;2023-02-28T07:42:05;0.77;;;0.50;;
19846;SDS011;10084;50.518;8.588;2023-02-28T07:44:34;0.87;;;0.60;;
19846;SDS011;10084;50.518;8.588;2023-02-28T07:47:01;3.23;;;0.47;;
19846;SDS011;10084;50.518;8.588;2023-02-28T07:49:26;0.57;;;0.50;;
19846;SDS011;10084;50.518;8.588;2023-02-28T07:51:52;0.60;;;0.53;;
19846;SDS011;10084;50.518;8.588;2023-02-28T07:54:18;0.47;;;0.40;;
19846;SDS011;10084;50.518;8.588;2023-02-28T07:56:44;2.63;;;0.47;;
19846;SDS011;10084;50.518;8.588;2023-02-28T07:59:09;0.50;;;0.40;;
19846;SDS011;10084;50.518;8.588;2023-02-28T08:01:35;0.40;;;0.40;;
19846;SDS011;10084;50.518;8.588;2023-02-28T08:04:01;0.70;;;0.60;;
19846;SDS011;10084;50.518;8.588;2023-02-28T08:06:27;3.53;;;0.50;;
19846;SDS011;10084;50.518;8.588;2023-02-28T08:08:52;0.40;;;0.40;;
19846;SDS011;10084;50.518;8.588;2023-02-28T08:11:18;0.30;;;0.30;;
19846;SDS011;10084;50.518;8.588;2023-02-28T08:13:45;0.30;;;0.30;;
19846;SDS011;10084;50.518;8.588;2023-02-28T08:16:11;0.50;;;0.50;;
19846;SDS011;10084;50.518;8.588;2023-02-28T08:18:42;0.83;;;0.43;;
19846;SDS011;10084;50.518;8.588;2023-02-28T08:21:09;2.53;;;0.50;;
19846;SDS011;10084;50.518;8.588;2023-02-28T08:23:35;6.63;;;0.60;;
19846;SDS011;10084;50.518;8.588;2023-02-28T08:26:02;0.63;;;0.40;;
19846;SDS011;10084;50.518;8.588;2023-02-28T08:28:28;1.07;;;0.67;;
19846;SDS011;10084;50.518;8.588;2023-02-28T08:30:54;15.03;;;0.80;;
19846;SDS011;10084;50.518;8.588;2023-02-28T08:33:20;2.70;;;0.70;;
19846;SDS011;10084;50.518;8.588;2023-02-28T08:35:46;6.87;;;0.90;;
19846;SDS011;10084;50.518;8.588;2023-02-28T08:38:12;7.80;;;0.83;;
19846;SDS011;10084;50.518;8.588;2023-02-28T08:40:37;6.87;;;0.80;;
19846;SDS011;10084;50.518;8.588;2023-02-28T08:43:03;10.57;;;1.03;;
19846;SDS011;10084;50.518;8.588;2023-02-28T08:45:29;15.97;;;1.13;;
19846;SDS011;10084;50.518;8.588;2023-02-28T08:47:55;6.67;;;1.07;;
19846;SDS011;10084;50.518;8.588;2023-02-28T08:50:21;2.83;;;0.90;;
19846;SDS011;10084;50.518;8.588;2023-02-28T08:52:47;6.77;;;0.70;;
19846;SDS011;10084;50.518;8.588;2023-02-28T08:55:13;7.47;;;0.90;;
19846;SDS011;10084;50.518;8.588;2023-02-28T08:57:39;6.90;;;0.70;;
19846;SDS011;10084;50.518;8.588;2023-02-28T09:00:05;1.53;;;0.70;;
19846;SDS011;10084;50.518;8.588;2023-02-28T09:02:32;6.90;;;0.90;;
19846;SDS011;10084;50.518;8.588;2023-02-28T09:04:58;10.07;;;1.07;;
19846;SDS011;10084;50.518;8.588;2023-02-28T09:07:24;7.83;;;0.90;;
19846;SDS011;10084;50.518;8.588;2023-02-28T09:09:53;9.17;;;0.83;;
19846;SDS011;10084;50.518;8.588;2023-02-28T09:12:20;2.33;;;0.83;;
19846;SDS011;10084;50.518;8.588;2023-02-28T09:14:47;2.30;;;0.77;;
19846;SDS011;10084;50.518;8.588;2023-02-28T09:17:13;5.47;;;0.80;;
19846;SDS011;10084;50.518;8.588;2023-02-28T09:19:39;2.07;;;0.70;;
19846;SDS011;10084;50.518;8.588;2023-02-28T09:22:04;1.97;;;0.97;;
19846;SDS011;10084;50.518;8.588;2023-02-28T09:24:30;3.03;;;0.67;;
19846;SDS011;10084;50.518;8.588;2023-02-28T09:26:56;8.20;;;0.67;;
19846;SDS011;10084;50.518;8.588;2023-02-28T09:29:22;3.60;;;1.10;;
19846;SDS011;10084;50.518;8.588;2023-02-28T09:31:48;3.40;;;1.27;;
19846;SDS011;10084;50.518;8.588;2023-02-28T09:34:14;2.10;;;0.87;;
19846;SDS011;10084;50.518;8.588;2023-02-28T09:36:42;2.53;;;0.80;;
19846;SDS011;10084;50.518;8.588;2023-02-28T09:39:08;3.20;;;1.30;;
19846;SDS011;10084;50.518;8.588;2023-02-28T09:41:52;7.33;;;1.20;;
19846;SDS011;10084;50.518;8.588;2023-02-28T09:44:36;0.83;;;0.83;;
19846;SDS011;10084;50.518;8.588;2023-02-28T09:47:11;1.00;;;1.00;;
19846;SDS011;10084;50.518;8.588;2023-02-28T09:49:52;1.20;;;1.00;;
19846;SDS011;10084;50.518;8.588;2023-02-28T09:52:21;1.10;;;1.00;;
19846;SDS011;10084;50.518;8.588;2023-02-28T09:54:51;1.27;;;1.17;;
19846;SDS011;10084;50.518;8.588;2023-02-28T09:57:19;1.20;;;1.10;;
19846;SDS011;10084;50.518;8.588;2023-02-28T10:05:18;0.80;;;0.80;;
19846;SDS011;10084;50.518;8.588;2023-02-28T10:10:23;1.07;;;1.03;;
19846;SDS011;10084;50.518;8.588;2023-02-28T10:12:55;1.40;;;1.30;;
19846;SDS011;10084;50.518;8.588;2023-02-28T10:15:25;1.20;;;1.10;;
19846;SDS011;10084;50.518;8.588;2023-02-28T10:17:56;1.03;;;1.03;;
19846;SDS011;10084;50.518;8.588;2023-02-28T10:20:25;4.97;;;0.90;;
19846;SDS011;10084;50.518;8.588;2023-02-28T10:25:53;1.07;;;1.00;;
19846;SDS011;10084;50.518;8.588;2023-02-28T10:28:43;1.07;;;0.97;;
19846;SDS011;10084;50.518;8.588;2023-02-28T10:31:17;1.37;;;1.27;;
19846;SDS011;10084;50.518;8.588;2023-02-28T10:33:44;1.53;;;1.30;;
19846;SDS011;10084;50.518;8.588;2023-02-28T10:36:15;2.10;;;1.03;;
19846;SDS011;10084;50.518;8.588;2023-02-28T10:38:43;1.00;;;0.90;;
19846;SDS011;10084;50.518;8.588;2023-02-28T10:41:13;0.93;;;0.90;;
19846;SDS011;10084;50.518;8.588;2023-02-28T10:43:40;1.03;;;1.00;;
19846;SDS011;10084;50.518;8.588;2023-02-28T10:48:37;0.93;;;0.90;;
19846;SDS011;10084;50.518;8.588;2023-02-28T10:51:07;3.40;;;1.10;;
19846;SDS011;10084;50.518;8.588;2023-02-28T10:56:18;1.00;;;1.00;;
19846;SDS011;10084;50.518;8.588;2023-02-28T11:04:00;1.47;;;1.30;;
19846;SDS011;10084;50.518;8.588;2023-02-28T11:06:30;1.17;;;0.90;;
19846;SDS011;10084;50.518;8.588;2023-02-28T11:08:58;1.00;;;0.83;;
19846;SDS011;10084;50.518;8.588;2023-02-28T11:11:30;0.80;;;0.80;;
19846;SDS011;10084;50.518;8.588;2023-02-28T11:14:07;6.00;;;0.87;;
19846;SDS011;10084;50.518;8.588;2023-02-28T11:16:53;3.60;;;0.80;;
19846;SDS011;10084;50.518;8.588;2023-02-28T11:19:22;1.43;;;0.90;;
19846;SDS011;10084;50.518;8.588;2023-02-28T11:21:53;0.77;;;0.77;;
19846;SDS011;10084;50.518;8.588;2023-02-28T11:24:25;1.30;;;0.70;;
19846;SDS011;10084;50.518;8.588;2023-02-28T11:26:55;0.60;;;0.60;;
19846;SDS011;10084;50.518;8.588;2023-02-28T11:29:22;0.70;;;0.70;;
19846;SDS011;10084;50.518;8.588;2023-02-28T11:32:03;1.30;;;0.60;;
19846;SDS011;10084;50.518;8.588;2023-02-28T11:34:31;1.67;;;1.00;;
19846;SDS011;10084;50.518;8.588;2023-02-28T11:36:57;1.00;;;0.90;;
19846;SDS011;10084;50.518;8.588;2023-02-28T11:39:26;2.00;;;0.70;;
19846;SDS011;10084;50.518;8.588;2023-02-28T11:47:33;0.80;;;0.80;;
19846;SDS011;10084;50.518;8.588;2023-02-28T11:50:13;0.87;;;0.70;;
19846;SDS011;10084;50.518;8.588;2023-02-28T11:56:14;1.27;;;1.17;;
19846;SDS011;10084;50.518;8.588;2023-02-28T11:58:55;1.13;;;0.83;;
19846;SDS011;10084;50.518;8.588;2023-02-28T12:07:46;2.07;;;0.80;;
19846;SDS011;10084;50.518;8.588;2023-02-28T12:10:28;1.13;;;0.70;;
19846;SDS011;10084;50.518;8.588;2023-02-28T12:15:31;2.53;;;0.90;;
19846;SDS011;10084;50.518;8.588;2023-02-28T12:23:50;0.97;;;0.83;;
19846;SDS011;10084;50.518;8.588;2023-02-28T12:26:41;1.10;;;1.00;;
19846;SDS011;10084;50.518;8.588;2023-02-28T12:32:16;1.10;;;0.80;;
19846;SDS011;10084;50.518;8.588;2023-02-28T12:34:39;0.90;;;0.70;;
19846;SDS011;10084;50.518;8.588;2023-02-28T12:40:19;0.80;;;0.60;;
19846;SDS011;10084;50.518;8.588;2023-02-28T12:42:52;0.50;;;0.50;;
19846;SDS011;10084;50.518;8.588;2023-02-28T12:45:43;0.60;;;0.60;;
19846;SDS011;10084;50.518;8.588;2023-02-28T12:48:21;0.93;;;0.70;;
19846;SDS011;10084;50.518;8.588;2023-02-28T12:50:57;1.10;;;1.00;;
19846;SDS011;10084;50.518;8.588;2023-02-28T12:56:12;1.50;;;1.00;;
19846;SDS011;10084;50.518;8.588;2023-02-28T13:01:48;0.50;;;0.50;;
19846;SDS011;10084;50.518;8.588;2023-02-28T13:04:32;0.40;;;0.40;;
19846;SDS011;10084;50.518;8.588;2023-02-28T13:07:10;0.53;;;0.40;;
19846;SDS011;10084;50.518;8.588;2023-02-28T13:09:38;1.00;;;0.60;;
19846;SDS011;10084;50.518;8.588;2023-02-28T13:12:15;0.53;;;0.53;;
19846;SDS011;10084;50.518;8.588;2023-02-28T13:14:41;0.80;;;0.63;;
19846;SDS011;10084;50.518;8.588;2023-02-28T13:19:38;0.83;;;0.60;;
19846;SDS011;10084;50.518;8.588;2023-02-28T13:22:22;0.30;;;0.30;;
19846;SDS011;10084;50.518;8.588;2023-02-28T13:25:52;0.80;;;0.70;;
19846;SDS011;10084;50.518;8.588;2023-02-28T13:28:07;1.17;;;0.70;;
19846;SDS011;10084;50.518;8.588;2023-02-28T13:33:32;0.83;;;0.83;;
19846;SDS011;10084;50.518;8.588;2023-02-28T13:36:11;1.00;;;0.80;;
19846;SDS011;10084;50.518;8.588;2023-02-28T13:38:58;0.70;;;0.70;;
19846;SDS011;10084;50.518;8.588;2023-02-28T13:46:35;0.70;;;0.70;;
19846;SDS011;10084;50.518;8.588;2023-02-28T13:49:28;1.20;;;1.10;;
19846;SDS011;10084;50.518;8.588;2023-02-28T13:54:34;1.00;;;0.90;;
19846;SDS011;10084;50.518;8.588;2023-02-28T13:59:51;1.33;;;1.17;;
19846;SDS011;10084;50.518;8.588;2023-02-28T14:05:19;1.00;;;0.80;;
19846;SDS011;10084;50.518;8.588;2023-02-28T14:07:52;1.13;;;1.03;;
19846;SDS011;10084;50.518;8.588;2023-02-28T14:10:26;2.00;;;1.33;;
19846;SDS011;10084;50.518;8.588;2023-02-28T14:13:02;0.80;;;0.80;;
19846;SDS011;10084;50.518;8.588;2023-02-28T14:15:44;1.20;;;1.10;;
19846;SDS011;10084;50.518;8.588;2023-02-28T14:18:17;2.30;;;1.30;;
19846;SDS011;10084;50.518;8.588;2023-02-28T14:21:16;1.00;;;0.90;;
19846;SDS011;10084;50.518;8.588;2023-02-28T14:29:18;1.27;;;1.17;;
19846;SDS011;10084;50.518;8.588;2023-02-28T14:31:52;1.47;;;1.37;;
19846;SDS011;10084;50.518;8.588;2023-02-28T14:37:27;1.60;;;1.50;;
19846;SDS011;10084;50.518;8.588;2023-02-28T14:39:56;1.43;;;1.33;;
19846;SDS011;10084;50.518;8.588;2023-02-28T14:42:30;1.60;;;1.47;;
19846;SDS011;10084;50.518;8.588;2023-02-28T14:44:58;1.70;;;1.60;;
19846;SDS011;10084;50.518;8.588;2023-02-28T14:47:28;2.37;;;1.50;;
19846;SDS011;10084;50.518;8.588;2023-02-28T14:49:57;2.20;;;2.10;;
19846;SDS011;10084;50.518;8.588;2023-02-28T14:52:26;3.63;;;2.23;;
19846;SDS011;10084;50.518;8.588;2023-02-28T14:54:55;1.73;;;1.60;;
19846;SDS011;10084;50.518;8.588;2023-02-28T14:57:29;1.93;;;1.83;;
19846;SDS011;10084;50.518;8.588;2023-02-28T15:00:02;2.97;;;1.90;;
19846;SDS011;10084;50.518;8.588;2023-02-28T15:02:30;2.73;;;2.07;;
19846;SDS011;10084;50.518;8.588;2023-02-28T15:05:10;3.97;;;3.57;;
19846;SDS011;10084;50.518;8.588;2023-02-28T15:07:41;3.20;;;2.80;;
19846;SDS011;10084;50.518;8.588;2023-02-28T15:10:21;2.40;;;2.20;;
19846;SDS011;10084;50.518;8.588;2023-02-28T15:12:51;1.90;;;1.80;;
19846;SDS011;10084;50.518;8.588;2023-02-28T15:15:22;3.50;;;1.83;;
19846;SDS011;10084;50.518;8.588;2023-02-28T15:17:53;2.87;;;2.10;;
19846;SDS011;10084;50.518;8.588;2023-02-28T15:20:22;1.80;;;1.70;;
19846;SDS011;10084;50.518;8.588;2023-02-28T15:22:49;3.57;;;1.80;;
19846;SDS011;10084;50.518;8.588;2023-02-28T15:25:18;3.83;;;2.17;;
19846;SDS011;10084;50.518;8.588;2023-02-28T15:27:50;1.60;;;1.50;;
19846;SDS011;10084;50.518;8.588;2023-02-28T15:30:21;1.87;;;1.67;;
19846;SDS011;10084;50.518;8.588;2023-02-28T15:35:42;1.70;;;1.60;;
19846;SDS011;10084;50.518;8.588;2023-02-28T15:38:13;2.37;;;1.40;;
19846;SDS011;10084;50.518;8.588;2023-02-28T15:41:00;2.70;;;1.77;;
19846;SDS011;10084;50.518;8.588;2023-02-28T15:43:30;1.57;;;1.47;;
19846;SDS011;10084;50.518;8.588;2023-02-28T15:45:58;2.30;;;1.23;;
19846;SDS011;10084;50.518;8.588;2023-02-28T15:48:36;1.50;;;1.37;;
19846;SDS011;10084;50.518;8.588;2023-02-28T15:53:47;2.03;;;1.80;;
19846;SDS011;10084;50.518;8.588;2023-02-28T15:56:26;3.40;;;1.67;;
19846;SDS011;10084;50.518;8.588;2023-02-28T15:58:59;1.70;;;1.60;;
19846;SDS011;10084;50.518;8.588;2023-02-28T16:01:28;2.23;;;1.50;;
19846;SDS011;10084;50.518;8.588;2023-02-28T16:03:59;1.50;;;1.40;;
19846;SDS011;10084;50.518;8.588;2023-02-28T16:06:32;1.47;;;1.37;;
19846;SDS011;10084;50.518;8.588;2023-02-28T16:08:58;1.30;;;1.20;;
19846;SDS011;10084;50.518;8.588;2023-02-28T16:11:24;1.60;;;1.50;;
19846;SDS011;10084;50.518;8.588;2023-02-28T16:13:50;1.57;;;1.40;;
19846;SDS011;10084;50.518;8.588;2023-02-28T16:16:17;1.00;;;0.90;;
19846;SDS011;10084;50.518;8.588;2023-02-28T16:18:44;1.20;;;0.97;;
19846;SDS011;10084;50.518;8.588;2023-02-28T16:21:10;1.10;;;1.00;;
19846;SDS011;10084;50.518;8.588;2023-02-28T16:23:36;1.40;;;1.30;;
19846;SDS011;10084;50.518;8.588;2023-02-28T16:26:03;1.37;;;1.10;;
19846;SDS011;10084;50.518;8.588;2023-02-28T16:28:31;1.00;;;0.90;;
19846;SDS011;10084;50.518;8.588;2023-02-28T16:31:04;1.10;;;0.93;;
19846;SDS011;10084;50.518;8.588;2023-02-28T16:33:31;0.87;;;0.80;;
19846;SDS011;10084;50.518;8.588;2023-02-28T16:35:58;1.10;;;1.00;;
19846;SDS011;10084;50.518;8.588;2023-02-28T16:38:25;1.10;;;0.80;;
19846;SDS011;10084;50.518;8.588;2023-02-28T16:40:51;1.63;;;0.77;;
19846;SDS011;10084;50.518;8.588;2023-02-28T16:43:19;1.13;;;0.87;;
19846;SDS011;10084;50.518;8.588;2023-02-28T16:45:48;0.73;;;0.73;;
19846;SDS011;10084;50.518;8.588;2023-02-28T16:48:23;1.10;;;0.60;;
19846;SDS011;10084;50.518;8.588;2023-02-28T16:50:49;0.90;;;0.60;;
19846;SDS011;10084;50.518;8.588;2023-02-28T16:53:15;0.60;;;0.60;;
19846;SDS011;10084;50.518;8.588;2023-02-28T16:55:41;0.47;;;0.47;;
19846;SDS011;10084;50.518;8.588;2023-02-28T16:58:11;5.13;;;0.60;;
19846;SDS011;10084;50.518;8.588;2023-02-28T17:00:42;0.67;;;0.67;;
19846;SDS011;10084;50.518;8.588;2023-02-28T17:03:25;1.10;;;0.50;;
19846;SDS011;10084;50.518;8.588;2023-02-28T17:05:52;1.33;;;0.60;;
19846;SDS011;10084;50.518;8.588;2023-02-28T17:08:18;2.13;;;0.50;;
19846;SDS011;10084;50.518;8.588;2023-02-28T17:10:44;0.70;;;0.50;;
19846;SDS011;10084;50.518;8.588;2023-02-28T17:13:10;0.60;;;0.60;;
19846;SDS011;10084;50.518;8.588;2023-02-28T17:15:36;0.77;;;0.50;;
19846;SDS011;10084;50.518;8.588;2023-02-28T17:18:05;0.70;;;0.50;;
19846;SDS011;10084;50.518;8.588;2023-02-28T17:20:31;0.87;;;0.73;;
19846;SDS011;10084;50.518;8.588;2023-02-28T17:22:57;1.70;;;0.70;;
19846;SDS011;10084;50.518;8.588;2023-02-28T17:25:23;0.50;;;0.50;;
19846;SDS011;10084;50.518;8.588;2023-02-28T17:27:49;1.03;;;0.57;;
19846;SDS011;10084;50.518;8.588;2023-02-28T17:32:46;5.43;;;0.53;;
19846;SDS011;10084;50.518;8.588;2023-02-28T17:35:12;93.47;;;4.33;;
19846;SDS011;10084;50.518;8.588;2023-02-28T17:37:39;53.10;;;2.70;;
19846;SDS011;10084;50.518;8.588;2023-02-28T17:40:05;47.47;;;3.37;;
19846;SDS011;10084;50.518;8.588;2023-02-28T17:42:32;34.20;;;3.73;;
19846;SDS011;10084;50.518;8.588;2023-02-28T17:44:57;34.37;;;5.90;;
19846;SDS011;10084;50.518;8.588;2023-02-28T17:47:23;18.87;;;4.63;;
19846;SDS011;10084;50.518;8.588;2023-02-28T17:49:49;49.57;;;12.57;;
19846;SDS011;10084;50.518;8.588;2023-02-28T17:52:15;69.50;;;30.13;;
19846;SDS011;10084;50.518;8.588;2023-02-28T17:54:41;65.17;;;22.33;;
19846;SDS011;10084;50.518;8.588;2023-02-28T17:57:11;36.90;;;17.73;;
19846;SDS011;10084;50.518;8.588;2023-02-28T17:59:39;47.43;;;14.00;;
19846;SDS011;10084;50.518;8.588;2023-02-28T18:02:08;23.20;;;10.90;;
19846;SDS011;10084;50.518;8.588;2023-02-28T18:04:36;24.57;;;10.77;;
19846;SDS011;10084;50.518;8.588;2023-02-28T18:07:02;10.57;;;8.17;;
19846;SDS011;10084;50.518;8.588;2023-02-28T18:09:28;18.43;;;7.87;;
19846;SDS011;10084;50.518;8.588;2023-02-28T18:11:55;22.53;;;8.20;;
19846;SDS011;10084;50.518;8.588;2023-02-28T18:14:22;12.77;;;7.03;;
19846;SDS011;10084;50.518;8.588;2023-02-28T18:16:51;10.20;;;6.30;;
19846;SDS011;10084;50.518;8.588;2023-02-28T18:19:18;11.50;;;5.43;;
19846;SDS011;10084;50.518;8.588;2023-02-28T18:21:46;13.47;;;7.90;;
19846;SDS011;10084;50.518;8.588;2023-02-28T18:24:14;11.77;;;10.77;;
19846;SDS011;10084;50.518;8.588;2023-02-28T18:26:40;10.07;;;9.07;;
19846;SDS011;10084;50.518;8.588;2023-02-28T18:29:24;17.27;;;7.07;;
19846;SDS011;10084;50.518;8.588;2023-02-28T18:31:57;7.80;;;4.70;;
19846;SDS011;10084;50.518;8.588;2023-02-28T18:34:23;5.87;;;5.37;;
19846;SDS011;10084;50.518;8.588;2023-02-28T18:36:50;7.17;;;4.97;;
19846;SDS011;10084;50.518;8.588;2023-02-28T18:39:17;7.03;;;4.87;;
19846;SDS011;10084;50.518;8.588;2023-02-28T18:41:43;5.17;;;3.83;;
19846;SDS011;10084;50.518;8.588;2023-02-28T18:44:09;5.93;;;4.20;;
19846;SDS011;10084;50.518;8.588;2023-02-28T18:46:35;5.00;;;4.33;;
19846;SDS011;10084;50.518;8.588;2023-02-28T18:49:01;6.30;;;3.80;;
19846;SDS011;10084;50.518;8.588;2023-02-28T18:51:27;3.90;;;3.60;;
19846;SDS011;10084;50.518;8.588;2023-02-28T18:53:54;3.67;;;3.37;;
19846;SDS011;10084;50.518;8.588;2023-02-28T18:56:20;4.17;;;3.83;;
19846;SDS011;10084;50.518;8.588;2023-02-28T18:58:48;3.83;;;3.40;;
19846;SDS011;10084;50.518;8.588;2023-02-28T19:01:19;4.27;;;3.20;;
19846;SDS011;10084;50.518;8.588;2023-02-28T19:03:47;3.37;;;3.10;;
19846;SDS011;10084;50.518;8.588;2023-02-28T19:06:13;4.67;;;2.97;;
19846;SDS011;10084;50.518;8.588;2023-02-28T19:08:40;4.80;;;2.70;;
19846;SDS011;10084;50.518;8.588;2023-02-28T19:11:09;4.07;;;3.10;;
19846;SDS011;10084;50.518;8.588;2023-02-28T19:13:37;3.03;;;2.83;;
19846;SDS011;10084;50.518;8.588;2023-02-28T19:16:03;2.90;;;2.63;;
19846;SDS011;10084;50.518;8.588;2023-02-28T19:18:31;2.77;;;2.57;;
19846;SDS011;10084;50.518;8.588;2023-02-28T19:20:57;2.60;;;2.40;;
19846;SDS011;10084;50.518;8.588;2023-02-28T19:23:23;4.20;;;2.77;;
19846;SDS011;10084;50.518;8.588;2023-02-28T19:25:50;2.67;;;2.47;;
19846;SDS011;10084;50.518;8.588;2023-02-28T19:28:16;3.10;;;2.70;;
19846;SDS011;10084;50.518;8.588;2023-02-28T19:30:46;4.00;;;2.70;;
19846;SDS011;10084;50.518;8.588;2023-02-28T19:33:13;7.07;;;2.47;;
19846;SDS011;10084;50.518;8.588;2023-02-28T19:35:40;3.33;;;3.03;;
19846;SDS011;10084;50.518;8.588;2023-02-28T19:38:06;3.33;;;2.97;;
19846;SDS011;10084;50.518;8.588;2023-02-28T19:40:33;3.23;;;2.80;;
19846;SDS011;10084;50.518;8.588;2023-02-28T19:43:00;3.63;;;3.20;;
19846;SDS011;10084;50.518;8.588;2023-02-28T19:45:25;3.93;;;3.17;;
19846;SDS011;10084;50.518;8.588;2023-02-28T19:47:53;4.97;;;3.47;;
19846;SDS011;10084;50.518;8.588;2023-02-28T19:50:20;4.27;;;3.00;;
19846;SDS011;10084;50.518;8.588;2023-02-28T19:52:46;6.17;;;3.10;;
19846;SDS011;10084;50.518;8.588;2023-02-28T19:55:14;9.03;;;3.40;;
19846;SDS011;10084;50.518;8.588;2023-02-28T19:57:41;3.27;;;2.87;;
19846;SDS011;10084;50.518;8.588;2023-02-28T20:00:07;3.37;;;3.10;;
19846;SDS011;10084;50.518;8.588;2023-02-28T20:02:37;3.97;;;3.07;;
19846;SDS011;10084;50.518;8.588;2023-02-28T20:05:03;4.43;;;3.67;;
19846;SDS011;10084;50.518;8.588;2023-02-28T20:07:30;3.30;;;2.93;;
19846;SDS011;10084;50.518;8.588;2023-02-28T20:09:56;5.10;;;3.13;;
19846;SDS011;10084;50.518;8.588;2023-02-28T20:12:22;6.83;;;3.03;;
19846;SDS011;10084;50.518;8.588;2023-02-28T20:14:48;5.53;;;3.10;;
19846;SDS011;10084;50.518;8.588;2023-02-28T20:17:15;4.90;;;2.70;;
19846;SDS011;10084;50.518;8.588;2023-02-28T20:19:41;3.67;;;2.93;;
19846;SDS011;10084;50.518;8.588;2023-02-28T20:22:07;3.17;;;2.87;;
19846;SDS011;10084;50.518;8.588;2023-02-28T20:24:34;4.13;;;3.20;;
19846;SDS011;10084;50.518;8.588;2023-02-28T20:27:01;3.73;;;3.13;;
19846;SDS011;10084;50.518;8.588;2023-02-28T20:29:27;6.73;;;2.73;;
19846;SDS011;10084;50.518;8.588;2023-02-28T20:31:54;5.50;;;2.70;;
19846;SDS011;10084;50.518;8.588;2023-02-28T20:34:21;2.80;;;2.50;;
19846;SDS011;10084;50.518;8.588;2023-02-28T20:36:49;3.23;;;2.53;;
19846;SDS011;10084;50.518;8.588;2023-02-28T20:39:15;3.53;;;2.50;;
19846;SDS011;10084;50.518;8.588;2023-02-28T20:41:41;3.30;;;2.50;;
19846;SDS011;10084;50.518;8.588;2023-02-28T20:44:07;7.03;;;2.40;;
19846;SDS011;10084;50.518;8.588;2023-02-28T20:46:36;2.40;;;2.20;;
19846;SDS011;10084;50.518;8.588;2023-02-28T20:49:02;2.33;;;2.13;;
19846;SDS011;10084;50.518;8.588;2023-02-28T20:51:28;4.63;;;2.10;;
19846;SDS011;10084;50.518;8.588;2023-02-28T20:53:54;7.77;;;3.50;;
19846;SDS011;10084;50.518;8.588;2023-02-28T20:56:20;4.13;;;3.60;;
19846;SDS011;10084;50.518;8.588;2023-02-28T20:58:48;3.37;;;3.00;;
19846;SDS011;10084;50.518;8.588;2023-02-28T21:01:21;5.07;;;3.20;;
19846;SDS011;10084;50.518;8.588;2023-02-28T21:06:28;4.93;;;4.57;;
19846;SDS011;10084;50.518;8.588;2023-02-28T21:08:56;4.97;;;4.13;;
19846;SDS011;10084;50.518;8.588;2023-02-28T21:11:28;7.27;;;6.63;;
19846;SDS011;10084;50.518;8.588;2023-02-28T21:13:57;15.63;;;14.77;;
19846;SDS011;10084;50.518;8.588;2023-02-28T21:16:25;15.07;;;14.27;;
19846;SDS011;10084;50.518;8.588;2023-02-28T21:18:53;22.40;;;20.47;;
19846;SDS011;10084;50.518;8.588;2023-02-28T21:21:23;14.40;;;13.50;;
19846;SDS011;10084;50.518;8.588;2023-02-28T21:23:49;12.33;;;11.50;;
19846;SDS011;10084;50.518;8.588;2023-02-28T21:26:18;12.27;;;11.17;;
19846;SDS011;10084;50.518;8.588;2023-02-28T21:28:50;10.70;;;10.10;;
19846;SDS011;10084;50.518;8.588;2023-02-28T21:31:17;8.80;;;7.97;;
19846;SDS011;10084;50.518;8.588;2023-02-28T21:33:44;6.57;;;6.20;;
19846;SDS011;10084;50.518;8.588;2023-02-28T21:36:13;6.27;;;5.97;;
19846;SDS011;10084;50.518;8.588;2023-02-28T21:38:42;5.60;;;5.30;;
19846;SDS011;10084;50.518;8.588;2023-02-28T21:41:10;5.50;;;5.20;;
19846;SDS011;10084;50.518;8.588;2023-02-28T21:43:38;5.97;;;5.07;;
19846;SDS011;10084;50.518;8.588;2023-02-28T21:46:06;5.60;;;5.20;;
19846;SDS011;10084;50.518;8.588;2023-02-28T21:48:34;4.73;;;4.47;;
19846;SDS011;10084;50.518;8.588;2023-02-28T21:51:01;4.43;;;4.20;;
19846;SDS011;10084;50.518;8.588;2023-02-28T21:53:29;3.73;;;3.53;;
19846;SDS011;10084;50.518;8.588;2023-02-28T21:55:59;4.77;;;3.87;;
19846;SDS011;10084;50.518;8.588;2023-02-28T21:58:30;9.37;;;5.37;;
